KDSM/DSM METAR and TAF weather

Enter ICAO airport designator
Station Type Date Time Source
KDSM METAR 2020/04/04 03:54 UTC NOAA

KDSM 040354Z 34008KT 10SM OVC015 M01/M03 A3023 RMK AO2 SLP248 T10111033


Station Type Date Time Source
KDSM Decoded METAR 2020/04/04 03:54 UTC NOAA

DES MOINES INTERNATIONAL, IA, United States (KDSM) 41-32N 93-40W 295M
Apr 03, 2020 - 11:54 PM EDT / 2020.04.04 0354 UTC
Wind: from the NNW (340 degrees) at 9 MPH (8 KT):0
Visibility: 10 mile(s):0
Sky conditions: overcast
Temperature: 30.0 F (-1.1 C)
Windchill: 21 F (-6 C):1
Dew Point: 26.1 F (-3.3 C)
Relative Humidity: 84%
Pressure (altimeter): 30.23 in. Hg (1023 hPa)
ob: KDSM 040354Z 34008KT 10SM OVC015 M01/M03 A3023 RMK AO2 SLP248 T10111033
cycle: 4

Station Type Date Time Source
KDSM TAF 2020/04/03 21:42 UTC NOAA

TAF
AMD KDSM 032039Z 0321/0418 33014G21KT 3SM -FZRA BR BKN009 OVC014
FM032200 33013G21KT P6SM OVC015
FM040000 34010KT P6SM BKN040
FM040500 36008KT P6SM FEW200

Example: see airport list